Time;durP1;ratioP1;P1;durP2;ratioP2;P2;SDS_P1;SDS_P2;PMS_P1;PMS_P2;Temp;Humidity;BMP_temperature;BMP_pressure;BME280_temperature;BME280_humidity;BME280_pressure;Samples;Min_cycle;Max_cycle;Signal;HPM_P1;HPM_P2
2022/05/07 00:00:43;;;;;;;24.35;12.75;;;;;;;19.39;50.42;100818.09;5110874;28;20142;-70
2022/05/07 00:03:10;;;;;;;18.58;11.65;;;;;;;19.41;50.46;100827.06;5110528;28;20147;-70
2022/05/07 00:05:37;;;;;;;23.77;13.25;;;;;;;19.09;50.46;100781.09;5112154;28;20127;-70
2022/05/07 00:08:05;;;;;;;19.00;11.30;;;;;;;19.31;50.81;100822.56;5106700;28;20079;-70
2022/05/07 00:10:32;;;;;;;25.27;12.63;;;;;;;19.28;50.67;100833.72;5092148;28;20099;-71
2022/05/07 00:12:59;;;;;;;30.83;18.05;;;;;;;18.92;50.73;100781.94;5094458;28;20468;-70
2022/05/07 00:15:26;;;;;;;32.78;17.27;;;;;;;19.23;51.05;100837.56;5112721;28;20070;-70
2022/05/07 00:18:03;;;;;;;43.95;21.05;;;;;;;19.17;50.88;100827.56;5101523;28;20086;-70
2022/05/07 00:20:32;;;;;;;35.58;19.35;;;;;;;19.12;51.05;100820.06;5111289;28;20073;-70
2022/05/07 00:23:00;;;;;;;57.72;31.52;;;;;;;19.03;51.56;100816.41;5111460;28;20072;-69
2022/05/07 00:25:29;;;;;;;46.35;23.05;;;;;;;19.03;51.44;100819.22;5105680;28;20072;-70
2022/05/07 00:27:56;;;;;;;35.95;20.27;;;;;;;18.82;51.55;100784.25;5107936;28;20135;-70
2022/05/07 00:30:23;;;;;;;42.60;22.15;;;;;;;18.98;51.61;100810.91;5099137;28;20175;-69
2022/05/07 00:32:49;;;;;;;44.53;26.52;;;;;;;18.99;52.04;100809.75;5095704;28;20039;-70
2022/05/07 00:35:17;;;;;;;39.45;21.98;;;;;;;18.97;51.92;100812.06;5108856;28;20086;-69
2022/05/07 00:37:43;;;;;;;25.38;14.65;;;;;;;18.96;52.35;100816.06;5112749;28;20130;-69
2022/05/07 00:40:11;;;;;;;20.55;12.63;;;;;;;18.86;52.26;100794.56;5112524;28;20071;-69
2022/05/07 00:42:38;;;;;;;18.75;12.05;;;;;;;18.82;52.58;100790.72;5110123;28;20083;-69
2022/05/07 00:45:06;;;;;;;21.27;12.27;;;;;;;18.94;52.47;100805.09;5108559;28;20083;-68
2022/05/07 00:47:33;;;;;;;18.75;12.45;;;;;;;18.86;52.55;100805.06;5107893;28;20079;-69
2022/05/07 00:52:47;;;;;;;31.15;19.23;;;;;;;18.88;52.67;100794.25;5106277;28;20395;-69
2022/05/07 00:55:15;;;;;;;24.63;12.73;;;;;;;18.93;52.97;100799.72;5111281;28;20462;-69
2022/05/07 00:57:42;;;;;;;24.52;14.18;;;;;;;18.82;52.89;100776.59;5110674;28;20229;-69
2022/05/07 01:00:10;;;;;;;51.33;25.17;;;;;;;18.93;53.03;100802.56;5105875;28;20091;-69
2022/05/07 01:02:37;;;;;;;43.03;22.88;;;;;;;18.84;52.86;100790.41;5108748;28;20233;-69
2022/05/07 01:05:05;;;;;;;49.40;26.45;;;;;;;18.80;52.91;100795.06;5110790;28;20050;-70
2022/05/07 01:07:35;;;;;;;44.20;24.55;;;;;;;18.68;53.04;100775.88;5112368;28;20134;-70
2022/05/07 01:10:04;;;;;;;46.47;24.77;;;;;;;18.80;53.12;100806.38;5108637;28;20090;-70
2022/05/07 01:12:31;;;;;;;47.58;25.40;;;;;;;18.70;53.09;100787.72;5107821;28;20052;-69
2022/05/07 01:15:00;;;;;;;47.00;23.35;;;;;;;18.66;53.08;100789.50;5107122;28;20147;-72
2022/05/07 01:17:32;;;;;;;36.67;20.48;;;;;;;18.56;53.25;100779.31;5110736;28;20047;-71
2022/05/07 01:19:59;;;;;;;44.03;23.65;;;;;;;18.51;53.39;100773.84;5096586;28;20043;-71
2022/05/07 01:22:30;;;;;;;39.38;19.40;;;;;;;18.56;53.87;100787.81;5105582;28;20138;-71
2022/05/07 01:24:59;;;;;;;34.85;19.33;;;;;;;18.52;53.46;100783.16;5114320;27;20133;-71
2022/05/07 01:27:25;;;;;;;36.05;18.63;;;;;;;18.41;53.72;100771.31;5101554;28;20152;-72
2022/05/07 01:29:52;;;;;;;33.20;18.15;;;;;;;18.43;53.70;100780.31;5095672;28;20078;-73
2022/05/07 01:32:19;;;;;;;38.10;20.13;;;;;;;18.50;53.90;100793.97;5112723;28;20055;-70
2022/05/07 01:34:46;;;;;;;29.83;17.52;;;;;;;18.41;54.08;100785.44;5112684;28;20142;-69
2022/05/07 01:37:13;;;;;;;36.25;20.95;;;;;;;18.27;53.92;100765.78;5115911;28;20083;-70
2022/05/07 01:39:40;;;;;;;36.33;19.98;;;;;;;18.09;54.26;100735.81;5115343;28;20449;-71
2022/05/07 01:42:06;;;;;;;35.20;19.45;;;;;;;18.35;54.33;100783.94;5108849;27;20569;-71
2022/05/07 01:44:34;;;;;;;34.70;18.55;;;;;;;18.33;54.05;100786.25;5112706;28;20450;-71
2022/05/07 01:49:46;;;;;;;27.98;16.23;;;;;;;17.97;54.81;100761.84;5110527;28;20138;-71
2022/05/07 01:52:14;;;;;;;28.52;15.35;;;;;;;18.10;54.82;100782.69;5112586;28;20130;-71
2022/05/07 01:54:40;;;;;;;29.92;15.48;;;;;;;18.03;55.09;100788.78;5111015;28;20112;-72
2022/05/07 01:57:08;;;;;;;24.02;13.80;;;;;;;18.10;54.99;100791.97;5111670;28;20131;-70
2022/05/07 01:59:35;;;;;;;26.15;15.23;;;;;;;18.08;55.02;100784.97;5140417;27;20135;-71
2022/05/07 02:02:02;;;;;;;25.50;14.98;;;;;;;17.90;55.19;100761.47;5110727;28;20068;-71
2022/05/07 02:04:28;;;;;;;28.00;13.77;;;;;;;18.00;55.30;100787.44;5110853;27;20048;-71
2022/05/07 02:06:55;;;;;;;31.95;13.43;;;;;;;18.02;55.54;100784.31;5109757;28;20075;-70
2022/05/07 02:09:22;;;;;;;26.00;13.60;;;;;;;18.00;55.35;100786.63;5114545;28;20134;-70
2022/05/07 02:11:49;;;;;;;29.20;13.50;;;;;;;17.97;55.49;100785.25;5112424;28;20135;-70
2022/05/07 02:14:16;;;;;;;25.80;14.77;;;;;;;17.88;55.88;100763.78;5108796;28;20797;-70
2022/05/07 02:16:43;;;;;;;24.52;12.82;;;;;;;17.92;55.79;100782.59;5109516;27;20138;-69
2022/05/07 02:19:09;;;;;;;28.38;13.73;;;;;;;17.85;56.04;100776.56;5108660;27;20150;-69
2022/05/07 02:21:36;;;;;;;27.60;13.40;;;;;;;17.82;56.19;100782.03;5107537;28;20082;-69
2022/05/07 02:24:04;;;;;;;22.17;12.25;;;;;;;17.77;56.17;100757.56;5110491;27;20122;-70
2022/05/07 02:26:31;;;;;;;26.58;12.88;;;;;;;17.88;56.10;100792.03;5109477;28;20581;-70
2022/05/07 02:28:58;;;;;;;24.40;11.82;;;;;;;17.84;55.85;100791.84;5109951;27;20673;-71
2022/05/07 02:31:25;;;;;;;22.38;11.75;;;;;;;17.79;56.12;100771.38;5112997;27;20138;-72
2022/05/07 02:33:52;;;;;;;23.02;12.32;;;;;;;17.69;56.11;100770.47;5112379;27;20096;-72
2022/05/07 02:36:19;;;;;;;25.77;14.77;;;;;;;17.79;56.30;100785.50;5112480;28;20053;-71
2022/05/07 02:38:45;;;;;;;23.90;14.20;;;;;;;17.63;56.35;100762.44;5114725;27;20077;-69
2022/05/07 02:43:59;;;;;;;29.13;14.75;;;;;;;17.62;56.89;100784.22;5113487;27;20095;-69
2022/05/07 02:46:26;;;;;;;23.40;13.50;;;;;;;17.57;56.59;100784.31;5112416;27;20082;-69
2022/05/07 02:48:53;;;;;;;24.83;16.30;;;;;;;17.45;56.81;100776.47;5112529;27;20070;-69
2022/05/07 02:51:20;;;;;;;25.92;15.40;;;;;;;17.58;56.75;100788.00;5112577;28;20087;-69
2022/05/07 02:53:47;;;;;;;28.20;15.13;;;;;;;17.54;56.96;100796.28;5106051;27;20067;-70
2022/05/07 02:56:14;;;;;;;29.77;15.70;;;;;;;17.35;56.91;100776.72;5109517;28;20547;-70
2022/05/07 02:58:42;;;;;;;29.50;16.90;;;;;;;17.49;57.09;100796.41;5113425;27;20082;-70
2022/05/07 03:01:09;;;;;;;28.33;17.17;;;;;;;17.44;56.89;100793.72;5111949;27;20130;-70
2022/05/07 03:03:36;;;;;;;32.15;19.15;;;;;;;17.22;57.16;100772.78;5110781;28;20127;-69
2022/05/07 03:06:03;;;;;;;32.42;19.55;;;;;;;17.36;57.01;100791.66;5108078;27;20135;-69
2022/05/07 03:08:30;;;;;;;35.65;21.52;;;;;;;17.12;57.46;100773.03;5101107;27;20070;-69
2022/05/07 03:10:57;;;;;;;35.92;21.77;;;;;;;17.17;57.66;100784.22;5112844;27;20130;-70
2022/05/07 03:13:24;;;;;;;34.92;20.23;;;;;;;17.03;57.71;100777.78;5110676;27;20074;-69
2022/05/07 03:15:50;;;;;;;35.67;22.05;;;;;;;17.10;57.52;100777.34;5111751;28;20138;-69
2022/05/07 03:18:17;;;;;;;39.45;22.77;;;;;;;17.08;57.37;100769.19;5102836;28;20056;-69
2022/05/07 03:20:44;;;;;;;37.60;22.45;;;;;;;17.07;57.51;100761.06;5111983;27;20131;-69
2022/05/07 03:23:13;;;;;;;38.75;22.52;;;;;;;17.07;57.63;100761.91;5111561;28;20127;-69
2022/05/07 03:25:39;;;;;;;47.67;25.42;;;;;;;17.14;57.51;100779.22;5114100;27;20073;-70
2022/05/07 03:28:07;;;;;;;41.80;24.17;;;;;;;17.10;57.51;100789.47;5110096;28;20130;-69
2022/05/07 03:30:34;;;;;;;46.30;27.90;;;;;;;17.07;57.62;100781.66;5111344;28;20051;-69
2022/05/07 03:33:00;;;;;;;50.85;27.77;;;;;;;17.05;57.81;100779.13;5112054;27;20076;-70
2022/05/07 03:35:28;;;;;;;42.40;27.50;;;;;;;17.00;57.63;100779.25;5113699;28;20091;-69
2022/05/07 03:37:55;;;;;;;42.50;26.20;;;;;;;17.00;57.49;100779.25;5113776;28;20056;-69
2022/05/07 03:40:23;;;;;;;38.42;25.55;;;;;;;16.88;57.90;100761.22;5111800;28;20142;-69
2022/05/07 03:42:50;;;;;;;47.08;26.45;;;;;;;16.96;57.51;100777.41;5106543;27;20082;-68
2022/05/07 03:45:16;;;;;;;37.78;25.10;;;;;;;16.77;57.94;100747.34;5112519;28;20138;-69
2022/05/07 03:47:43;;;;;;;41.47;25.90;;;;;;;16.95;57.61;100772.91;5108332;28;20573;-69
2022/05/07 03:50:10;;;;;;;46.08;28.42;;;;;;;16.70;57.63;100741.28;5108456;27;20055;-70
2022/05/07 03:55:22;;;;;;;43.90;26.52;;;;;;;16.70;57.60;100732.81;5108806;28;20138;-69
2022/05/07 03:57:49;;;;;;;42.33;25.98;;;;;;;16.90;57.85;100767.38;5110811;28;20135;-69
2022/05/07 04:00:16;;;;;;;45.92;26.77;;;;;;;16.89;57.49;100760.91;5106834;28;20109;-70
2022/05/07 04:02:43;;;;;;;40.63;24.63;;;;;;;16.86;57.96;100752.25;5103471;28;20134;-70
2022/05/07 04:05:10;;;;;;;41.95;26.73;;;;;;;16.88;57.68;100758.41;5104302;28;20051;-69
2022/05/07 04:07:37;;;;;;;44.40;26.17;;;;;;;16.76;57.77;100734.41;5104684;28;20134;-70
2022/05/07 04:10:05;;;;;;;43.42;26.60;;;;;;;16.74;57.77;100736.69;5108353;28;20100;-70
2022/05/07 04:12:32;;;;;;;44.70;26.63;;;;;;;16.83;57.76;100767.00;5106082;28;20491;-70
2022/05/07 04:15:00;;;;;;;42.43;26.20;;;;;;;16.83;57.85;100756.53;5110365;28;20067;-71
2022/05/07 04:17:27;;;;;;;49.40;28.23;;;;;;;16.79;57.86;100750.69;5112013;28;20444;-71
2022/05/07 04:19:54;;;;;;;43.25;26.38;;;;;;;16.78;57.88;100754.66;5112219;28;20093;-71
2022/05/07 04:22:22;;;;;;;39.55;26.55;;;;;;;16.79;57.76;100761.16;5113311;28;20051;-70
2022/05/07 04:24:48;;;;;;;43.30;28.10;;;;;;;16.69;57.98;100728.34;5106944;28;20127;-71
2022/05/07 04:27:16;;;;;;;30.95;18.90;;;;;;;16.69;57.87;100727.50;5109193;28;20093;-70
2022/05/07 04:29:43;;;;;;;27.80;16.73;;;;;;;16.69;58.45;100728.34;5112509;28;20488;-70
2022/05/07 04:32:10;;;;;;;23.23;13.63;;;;;;;16.80;58.68;100749.53;5112790;28;20134;-70
2022/05/07 04:34:37;;;;;;;21.38;10.60;;;;;;;16.69;57.78;100716.25;5112719;28;20131;-70
2022/05/07 04:37:04;;;;;;;13.20;6.32;;;;;;;16.92;56.97;100742.50;5111840;28;20079;-71
2022/05/07 04:39:34;;;;;;;10.60;6.32;;;;;;;16.78;55.83;100708.69;5098387;28;20083;-71
2022/05/07 04:42:02;;;;;;;5.55;3.75;;;;;;;17.08;54.57;100732.50;5107773;28;20043;-70
2022/05/07 04:44:29;;;;;;;4.45;3.10;;;;;;;17.18;53.02;100728.59;5111538;28;20075;-70
2022/05/07 04:46:56;;;;;;;8.18;5.05;;;;;;;17.28;52.24;100712.25;5109879;28;20127;-71
2022/05/07 04:49:23;;;;;;;6.05;3.80;;;;;;;17.50;51.34;100719.00;5111809;28;20135;-70
2022/05/07 04:51:50;;;;;;;5.07;2.33;;;;;;;17.64;50.44;100736.72;5111926;28;20048;-70
2022/05/07 04:54:21;;;;;;;7.53;4.72;;;;;;;17.67;49.25;100706.97;5116477;28;20131;-70
2022/05/07 04:56:49;;;;;;;7.68;5.82;;;;;;;18.10;48.87;100743.09;5114063;28;20054;-71
2022/05/07 04:59:17;;;;;;;8.93;5.78;;;;;;;18.14;48.70;100739.28;5115987;28;20086;-70
2022/05/07 05:01:44;;;;;;;16.98;8.35;;;;;;;18.11;48.83;100710.84;5109236;28;20082;-69
2022/05/07 05:04:11;;;;;;;38.47;21.13;;;;;;;18.22;49.40;100727.19;5115024;27;20511;-70
2022/05/07 05:06:38;;;;;;;35.08;22.92;;;;;;;18.30;49.95;100761.47;5115393;27;20097;-70
2022/05/07 05:09:07;;;;;;;36.40;24.02;;;;;;;18.12;50.50;100747.28;5115186;27;20051;-70
2022/05/07 05:11:35;;;;;;;35.78;24.70;;;;;;;18.00;50.73;100761.19;5111788;28;20491;-70
2022/05/07 05:15:01;;;;;;;44.90;25.98;;;;;;;17.84;51.21;100768.41;5114038;28;20130;-71
2022/05/07 05:16:49;;;;;;;39.75;27.05;;;;;;;17.65;51.44;100772.28;5104171;28;20094;-70
2022/05/07 05:19:17;;;;;;;39.58;25.63;;;;;;;17.37;52.43;100751.84;5116587;28;20070;-70
2022/05/07 05:21:44;;;;;;;36.72;25.92;;;;;;;17.19;52.43;100762.13;5116393;28;20081;-70
2022/05/07 05:24:11;;;;;;;40.67;25.75;;;;;;;17.11;53.18;100770.56;5115284;27;20150;-72
2022/05/07 05:26:38;;;;;;;40.25;27.27;;;;;;;17.09;53.38;100775.66;5117132;28;20134;-72
2022/05/07 05:29:05;;;;;;;41.38;27.05;;;;;;;16.89;53.82;100760.06;5117998;28;20134;-70
2022/05/07 05:31:33;;;;;;;37.17;25.95;;;;;;;16.97;53.45;100779.06;5117914;28;20079;-74
2022/05/07 05:34:00;;;;;;;39.15;26.27;;;;;;;16.79;54.05;100773.25;5118063;28;20554;-72
2022/05/07 05:36:33;;;;;;;40.67;25.98;;;;;;;16.21;54.58;100695.03;5115535;27;20082;-70
2022/05/07 05:39:00;;;;;;;36.38;25.65;;;;;;;16.50;54.74;100769.94;5112598;28;20127;-72
2022/05/07 05:41:27;;;;;;;36.50;25.15;;;;;;;16.57;55.16;100781.63;5114546;27;20079;-71
2022/05/07 05:43:54;;;;;;;39.75;23.42;;;;;;;16.51;55.17;100780.06;5112686;28;20134;-72
2022/05/07 05:46:21;;;;;;;40.65;24.80;;;;;;;16.49;55.40;100782.38;5110869;28;20628;-70
2022/05/07 05:48:48;;;;;;;38.38;24.75;;;;;;;16.55;55.61;100795.22;5115810;28;20047;-70
2022/05/07 05:51:15;;;;;;;38.45;23.15;;;;;;;16.38;55.75;100770.47;5115258;28;20143;-70
2022/05/07 05:53:41;;;;;;;38.28;23.02;;;;;;;16.41;55.95;100783.94;5114820;28;20102;-70
2022/05/07 05:56:08;;;;;;;35.37;23.43;;;;;;;16.50;56.21;100784.03;5113759;28;20074;-70
2022/05/07 05:58:35;;;;;;;37.78;22.63;;;;;;;16.47;56.28;100781.84;5117153;27;20090;-69
2022/05/07 06:01:03;;;;;;;35.50;23.38;;;;;;;16.63;56.36;100790.81;5114370;28;20079;-70
2022/05/07 06:03:31;;;;;;;33.58;20.95;;;;;;;16.66;55.97;100765.63;5112971;28;20143;-70
2022/05/07 06:05:58;;;;;;;31.98;22.27;;;;;;;16.89;56.16;100771.34;5114008;28;20051;-70
2022/05/07 06:08:24;;;;;;;35.08;21.50;;;;;;;17.05;56.18;100779.13;5114484;28;20130;-70
2022/05/07 06:10:54;;;;;;;32.45;21.02;;;;;;;17.28;55.79;100790.44;5112616;28;20075;-71
2022/05/07 06:13:21;;;;;;;17.85;9.60;;;;;;;17.65;54.11;100794.03;5114602;28;20108;-70
2022/05/07 06:15:51;;;;;;;15.25;8.70;;;;;;;17.96;51.83;100785.59;5108104;27;20131;-71
2022/05/07 06:18:22;;;;;;;6.43;4.43;;;;;;;18.49;49.71;100784.63;5114198;28;20086;-70
2022/05/07 06:20:50;;;;;;;3.72;2.75;;;;;;;18.99;49.11;100795.59;5106143;28;20100;-70
2022/05/07 06:23:17;;;;;;;5.90;3.60;;;;;;;19.26;46.66;100783.09;5110126;28;20524;-71
2022/05/07 06:28:29;;;;;;;6.13;3.50;;;;;;;19.80;42.36;100789.22;5112870;27;20126;-66
2022/05/07 06:30:57;;;;;;;6.45;2.80;;;;;;;20.00;40.46;100779.16;5114278;27;20130;-65
2022/05/07 06:33:24;;;;;;;2.75;1.63;;;;;;;20.44;38.99;100793.16;5111246;28;20079;-66
2022/05/07 06:35:51;;;;;;;2.35;1.48;;;;;;;20.64;37.92;100794.41;5113654;28;20046;-66
2022/05/07 06:38:18;;;;;;;2.90;1.65;;;;;;;20.89;37.62;100784.91;5113179;28;20090;-67
2022/05/07 06:40:45;;;;;;;2.88;1.88;;;;;;;21.22;35.85;100781.28;5113160;27;20130;-66
2022/05/07 06:43:12;;;;;;;2.67;1.63;;;;;;;21.25;33.89;100791.97;5111467;28;20071;-66
2022/05/07 06:45:40;;;;;;;9.77;1.40;;;;;;;21.27;32.76;100779.09;5112173;27;20079;-67
2022/05/07 06:48:11;;;;;;;4.80;2.00;;;;;;;;;;5112189;28;20047;-67
2022/05/07 06:50:39;;;;;;;1.70;1.10;;;;;;;21.76;32.79;100772.78;5110031;28;20494;-66
2022/05/07 06:53:06;;;;;;;5.90;1.70;;;;;;;22.17;32.22;100793.75;5106922;27;20089;-67
2022/05/07 06:55:33;;;;;;;2.35;1.40;;;;;;;22.36;31.28;100794.03;5111347;27;20131;-67
2022/05/07 06:58:00;;;;;;;2.72;1.60;;;;;;;22.60;31.71;100789.53;5113224;27;20096;-67
2022/05/07 07:00:47;;;;;;;1.65;1.30;;;;;;;22.75;30.38;100785.13;5111730;28;20043;-68
2022/05/07 07:03:14;;;;;;;1.40;1.10;;;;;;;22.76;30.09;100790.44;5102766;28;20046;-68
2022/05/07 07:05:42;;;;;;;3.22;1.05;;;;;;;22.96;29.92;100790.69;5112418;27;20122;-66
2022/05/07 07:08:11;;;;;;;1.00;0.88;;;;;;;23.09;29.51;100783.78;5111650;28;20047;-67
2022/05/07 07:10:41;;;;;;;4.20;1.65;;;;;;;23.11;29.22;100787.06;5108449;27;20139;-67
2022/05/07 07:13:08;;;;;;;1.10;0.80;;;;;;;22.91;27.90;100801.09;5102898;27;20130;-67
2022/05/07 07:15:36;;;;;;;2.38;1.20;;;;;;;23.11;28.93;100787.06;5111662;28;20130;-67
2022/05/07 07:18:20;;;;;;;3.28;1.80;;;;;;;23.21;28.11;100774.34;5113910;28;20046;-67
2022/05/07 07:21:04;;;;;;;3.60;1.00;;;;;;;23.46;28.11;100800.75;5111611;28;20050;-67
2022/05/07 07:23:49;;;;;;;1.48;0.90;;;;;;;23.16;27.30;100801.09;5112656;28;20046;-68
2022/05/07 07:26:33;;;;;;;2.05;1.27;;;;;;;23.26;27.56;100805.44;5112156;28;20084;-67
2022/05/07 07:29:18;;;;;;;0.70;0.63;;;;;;;23.32;27.46;100786.91;5110481;28;20172;-67
2022/05/07 07:32:02;;;;;;;1.13;1.00;;;;;;;22.82;26.47;100768.25;5108697;28;20505;-68
2022/05/07 07:34:47;;;;;;;4.10;1.92;;;;;;;23.05;27.31;100799.94;5111864;28;20228;-68
2022/05/07 07:37:32;;;;;;;1.30;1.08;;;;;;;23.22;27.00;100799.66;5112907;28;20038;-67
2022/05/07 07:40:17;;;;;;;2.13;1.35;;;;;;;23.26;27.59;100794.88;5112502;27;20582;-68
2022/05/07 07:43:01;;;;;;;2.78;1.35;;;;;;;23.61;27.05;100805.66;5112462;28;20504;-67
2022/05/07 07:48:49;;;;;;;1.13;0.88;;;;;;;23.88;25.84;100813.41;5105944;28;20168;-67
2022/05/07 07:51:34;;;;;;;1.63;1.15;;;;;;;23.87;26.02;100803.19;5111170;27;20570;-69
2022/05/07 07:54:18;;;;;;;3.58;1.13;;;;;;;23.89;25.27;100795.09;5099751;28;20038;-69
2022/05/07 07:57:02;;;;;;;1.90;1.60;;;;;;;24.21;26.41;100802.88;5111257;28;20059;-70
2022/05/07 07:59:39;;;;;;;8.32;2.17;;;;;;;24.33;25.25;100808.50;5112408;28;20578;-68
2022/05/07 08:02:06;;;;;;;2.67;1.30;;;;;;;24.39;24.92;100789.91;5112443;28;20537;-69
2022/05/07 08:04:33;;;;;;;1.38;1.00;;;;;;;24.59;24.73;100799.41;5112244;27;20055;-69
2022/05/07 08:12:31;;;;;;;5.80;1.98;;;;;;;24.86;23.58;100816.78;5111900;28;20138;-70
2022/05/07 08:14:58;;;;;;;1.65;1.02;;;;;;;24.97;23.61;100804.41;5112269;28;20071;-72
2022/05/07 08:17:25;;;;;;;1.23;0.90;;;;;;;25.36;23.36;100838.78;5110521;28;20794;-70
2022/05/07 08:19:51;;;;;;;1.77;1.30;;;;;;;25.35;23.22;100825.69;5118659;28;20074;-75
2022/05/07 08:22:19;;;;;;;1.80;1.08;;;;;;;25.28;22.46;100840.66;5113778;28;20518;-71
2022/05/07 08:24:45;;;;;;;5.43;1.20;;;;;;;25.14;21.79;100831.75;5106843;28;20044;-70
2022/05/07 08:27:12;;;;;;;3.20;1.17;;;;;;;25.31;22.45;100826.81;5104867;28;20082;-69
2022/05/07 08:29:39;;;;;;;3.90;1.30;;;;;;;25.21;22.49;100793.94;5114630;28;20502;-69
2022/05/07 08:32:07;;;;;;;2.22;1.50;;;;;;;25.71;22.24;100815.84;5111545;27;20135;-70
2022/05/07 08:34:34;;;;;;;2.67;1.48;;;;;;;26.01;23.64;100820.94;5126615;27;20078;-75
2022/05/07 08:37:01;;;;;;;1.42;1.02;;;;;;;26.08;22.68;100826.81;5132340;27;20091;-74
2022/05/07 08:39:29;;;;;;;4.13;1.50;;;;;;;26.07;22.07;100793.69;5130883;27;20052;-76
2022/05/07 08:41:59;;;;;;;2.35;1.55;;;;;;;26.43;22.52;100820.91;5125917;27;20079;-77
2022/05/07 08:44:33;;;;;;;4.95;1.50;;;;;;;26.41;21.97;100822.50;5119951;27;20050;-77
2022/05/07 08:47:00;;;;;;;1.08;0.90;;;;;;;26.39;20.75;100827.78;5115070;27;20063;-76
2022/05/07 08:49:28;;;;;;;3.45;1.15;;;;;;;26.13;20.10;100817.91;5113652;28;20052;-76
2022/05/07 08:51:56;;;;;;;2.25;0.65;;;;;;;25.58;19.53;100797.19;5118103;28;20039;-76
2022/05/07 08:54:23;;;;;;;0.60;0.60;;;;;;;25.25;19.08;100798.53;5114574;27;20064;-78
2022/05/07 08:56:50;;;;;;;2.58;1.13;;;;;;;25.35;19.36;100819.16;5110485;27;20147;-77
2022/05/07 08:59:17;;;;;;;3.08;1.48;;;;;;;25.21;19.32;100814.78;5120223;28;20051;-77
2022/05/07 09:01:44;;;;;;;2.17;1.13;;;;;;;25.14;19.24;100793.78;5121927;27;20040;-77
2022/05/07 09:04:12;;;;;;;0.85;0.82;;;;;;;25.16;19.07;100811.38;5127415;28;20066;-76
2022/05/07 09:06:38;;;;;;;1.30;1.00;;;;;;;25.30;19.23;100817.44;5132097;28;20497;-77
2022/05/07 09:09:06;;;;;;;1.00;0.90;;;;;;;25.34;18.88;100815.47;5126724;28;20083;-77
2022/05/07 09:11:43;;;;;;;2.92;1.50;;;;;;;25.42;19.46;100816.44;5122571;28;20070;-77
2022/05/07 09:14:11;;;;;;;2.00;0.88;;;;;;;25.69;18.84;100826.84;5122791;27;20063;-78
2022/05/07 09:16:38;;;;;;;1.02;0.80;;;;;;;25.85;18.93;100825.97;5124566;28;20086;-77
2022/05/07 09:19:05;;;;;;;1.38;0.70;;;;;;;26.02;19.42;100796.88;5124511;28;20052;-77
2022/05/07 09:21:32;;;;;;;8.63;1.45;;;;;;;26.28;18.44;100823.91;5124208;28;20071;-76
2022/05/07 09:23:59;;;;;;;5.63;1.35;;;;;;;26.45;18.25;100821.34;5128519;28;20048;-76
2022/05/07 09:26:30;;;;;;;1.85;1.00;;;;;;;26.53;18.16;100816.63;5129231;28;20105;-77
2022/05/07 09:28:58;;;;;;;0.45;0.45;;;;;;;26.79;18.90;100827.25;5126564;28;20494;-77
2022/05/07 09:31:33;;;;;;;5.25;1.60;;;;;;;26.70;17.91;100781.72;5120952;27;20081;-77
2022/05/07 09:36:59;;;;;;;2.13;0.80;;;;;;;26.95;17.68;100798.47;5122880;28;20125;-76
2022/05/07 09:39:33;;;;;;;4.50;1.10;;;;;;;26.74;17.52;100786.69;5124546;28;20047;-76
2022/05/07 09:42:06;;;;;;;9.73;1.50;;;;;;;26.86;17.74;100783.56;5122116;28;20130;-76
2022/05/07 09:44:35;;;;;;;0.77;0.77;;;;;;;26.58;17.40;100764.72;5119021;28;20067;-77
2022/05/07 09:47:05;;;;;;;3.28;1.02;;;;;;;26.93;17.40;100798.00;5112682;28;20074;-76
2022/05/07 09:49:33;;;;;;;2.55;0.90;;;;;;;27.17;17.70;100791.84;5125314;28;20043;-77
2022/05/07 09:52:03;;;;;;;1.42;1.17;;;;;;;27.48;17.63;100806.16;5134041;28;20055;-77
2022/05/07 09:57:31;;;;;;;1.42;1.10;;;;;;;27.23;17.09;100802.97;5129628;28;20086;-77
2022/05/07 10:00:07;;;;;;;5.00;1.42;;;;;;;27.48;17.33;100794.69;5123980;28;20469;-77
2022/05/07 10:02:41;;;;;;;2.75;0.90;;;;;;;27.50;17.36;100804.56;5109297;28;20048;-77
2022/05/07 10:05:40;;;;;;;1.20;1.10;;;;;;;27.60;17.32;100812.50;5110089;28;20525;-77
2022/05/07 10:08:10;;;;;;;1.75;1.17;;;;;;;27.76;17.55;100809.44;5127144;28;20563;-76
2022/05/07 10:10:39;;;;;;;4.65;1.40;;;;;;;28.17;17.51;100808.63;5131670;28;20497;-77
2022/05/07 10:13:08;;;;;;;0.68;0.68;;;;;;;28.16;17.22;100809.84;5130384;28;20075;-76
2022/05/07 10:15:35;;;;;;;1.45;1.10;;;;;;;28.09;17.03;100814.31;5130007;28;20055;-76
2022/05/07 10:18:08;;;;;;;4.82;1.10;;;;;;;28.12;17.20;100815.56;5133032;28;20048;-77
2022/05/07 10:20:45;;;;;;;1.85;1.10;;;;;;;28.46;17.36;100819.22;5132112;28;20113;-76
2022/05/07 10:23:14;;;;;;;3.50;1.25;;;;;;;29.21;17.87;100821.84;5129903;28;20052;-76
2022/05/07 10:25:54;;;;;;;5.03;1.38;;;;;;;29.81;17.58;100818.44;5131673;28;20055;-77
2022/05/07 10:28:21;;;;;;;6.53;1.50;;;;;;;29.88;17.29;100826.28;5130735;28;20062;-76
2022/05/07 10:30:56;;;;;;;1.65;1.20;;;;;;;30.01;16.95;100818.09;5160872;27;20055;-76
2022/05/07 10:33:24;;;;;;;2.50;1.27;;;;;;;29.88;16.18;100830.00;5130985;28;20047;-77
2022/05/07 10:35:56;;;;;;;0.95;0.90;;;;;;;29.71;16.48;100793.31;5132676;28;20047;-78
2022/05/07 10:38:32;;;;;;;4.15;1.02;;;;;;;29.44;16.12;100821.56;5128511;28;20104;-77
2022/05/07 10:41:02;;;;;;;1.60;1.13;;;;;;;29.44;15.95;100795.69;5129351;28;20055;-77
2022/05/07 10:43:34;;;;;;;5.25;1.45;;;;;;;30.02;16.64;100794.66;5123992;28;20058;-77
2022/05/07 10:46:01;;;;;;;5.80;1.33;;;;;;;30.37;16.84;100840.03;5114705;28;20490;-76
2022/05/07 10:48:28;;;;;;;2.78;1.30;;;;;;;30.58;16.80;100813.28;5125976;28;20055;-76
2022/05/07 10:51:00;;;;;;;2.75;1.30;;;;;;;31.12;16.53;100813.25;5132520;28;20047;-78
2022/05/07 10:53:38;;;;;;;4.10;1.60;;;;;;;31.15;16.49;100798.00;5135748;28;20062;-75
2022/05/07 10:56:13;;;;;;;3.88;1.65;;;;;;;31.56;17.15;100814.78;5131421;28;20054;-77
2022/05/07 10:58:45;;;;;;;2.90;1.90;;;;;;;32.15;17.04;100800.47;5132815;28;20058;-77
2022/05/07 11:01:13;;;;;;;5.28;1.90;;;;;;;32.81;17.99;100819.78;5128121;28;20052;-78
2022/05/07 11:03:40;;;;;;;6.22;4.28;;;;;;;33.01;20.43;100806.41;5133329;28;20055;-77
2022/05/07 11:06:07;;;;;;;8.57;4.35;;;;;;;32.86;22.00;100813.56;5127983;28;20040;-77
2022/05/07 11:08:47;;;;;;;9.03;4.50;;;;;;;32.70;23.12;100805.44;5127536;27;20130;-77
2022/05/07 11:11:15;;;;;;;8.43;4.18;;;;;;;32.53;23.66;100817.97;5127052;28;20081;-78
2022/05/07 11:13:53;;;;;;;6.60;3.67;;;;;;;32.40;24.73;100819.69;5131373;28;20051;-76
2022/05/07 11:16:22;;;;;;;7.50;4.15;;;;;;;32.51;25.03;100823.34;5130578;28;20079;-76
2022/05/07 11:18:53;;;;;;;10.95;4.43;;;;;;;32.45;25.58;100813.50;5131498;28;20490;-77
2022/05/07 11:21:23;;;;;;;8.85;4.10;;;;;;;32.01;25.87;100807.16;5133024;28;20065;-77
2022/05/07 11:23:57;;;;;;;9.05;4.20;;;;;;;31.68;26.39;100808.53;5133086;28;20054;-77
2022/05/07 11:26:24;;;;;;;7.75;4.30;;;;;;;31.81;26.68;100812.59;5163496;27;20120;-76
2022/05/07 11:28:52;;;;;;;6.60;4.78;;;;;;;31.83;26.70;100820.84;5132682;28;20035;-76
2022/05/07 11:31:34;;;;;;;7.55;4.97;;;;;;;31.34;27.53;100794.66;5128730;28;20249;-77
2022/05/07 11:34:09;;;;;;;7.43;4.95;;;;;;;31.28;27.93;100802.09;5130211;28;20067;-77
2022/05/07 11:36:37;;;;;;;7.22;4.75;;;;;;;31.25;28.31;100813.59;5131020;28;20498;-77
2022/05/07 11:39:08;;;;;;;8.07;5.40;;;;;;;31.34;28.13;100796.72;5131052;28;20044;-75
2022/05/07 11:41:36;;;;;;;6.82;5.65;;;;;;;31.24;28.39;100794.66;5131132;28;20047;-77
2022/05/07 11:47:23;;;;;;;8.45;5.40;;;;;;;31.45;28.75;100794.63;5129440;28;20047;-77
2022/05/07 11:50:06;;;;;;;8.13;5.75;;;;;;;31.24;28.66;100749.31;5132331;28;20052;-76
2022/05/07 11:52:34;;;;;;;8.50;5.90;;;;;;;31.44;28.73;100780.63;5130295;28;20134;-77
2022/05/07 11:55:06;;;;;;;6.10;4.97;;;;;;;31.65;28.75;100780.50;5132125;28;20042;-76
2022/05/07 11:57:38;;;;;;;10.38;5.38;;;;;;;31.83;28.94;100763.06;5129610;28;20055;-75